createdAt,value
2019-04-30T00:19:50.423Z,38.96
2019-04-30T00:22:16.980Z,39.36
2019-04-30T00:24:46.750Z,38.78
2019-04-30T00:27:14.969Z,38.54
2019-04-30T00:29:41.536Z,38.63
2019-04-30T00:32:08.218Z,38.74
2019-04-30T00:34:38.330Z,39.26
2019-04-30T00:37:07.313Z,39.67
2019-04-30T00:42:24.456Z,39.90
2019-04-30T00:44:55.344Z,39.76
2019-04-30T00:47:20.847Z,39.67
2019-04-30T00:49:52.231Z,40.16
2019-04-30T00:52:17.027Z,39.88
2019-04-30T00:54:45.225Z,40.02
2019-04-30T00:57:12.689Z,40.34
2019-04-30T00:59:39.686Z,39.83
2019-04-30T01:02:08.535Z,39.77
2019-04-30T01:04:35.665Z,39.23
2019-04-30T01:07:08.521Z,39.08
2019-04-30T01:09:32.852Z,39.30
2019-04-30T01:12:00.440Z,39.04
2019-04-30T01:14:31.970Z,39.66
2019-04-30T01:16:59.283Z,38.97
2019-04-30T01:19:30.168Z,38.69
2019-04-30T01:21:54.500Z,38.65
2019-04-30T01:24:23.499Z,39.08
2019-04-30T01:26:53.104Z,38.53
2019-04-30T01:29:21.463Z,38.72
2019-04-30T01:31:48.862Z,38.40
2019-04-30T01:34:19.409Z,38.43
2019-04-30T01:36:48.419Z,38.78
2019-04-30T01:39:16.132Z,39.16
2019-04-30T01:41:44.538Z,38.00
2019-04-30T01:44:12.145Z,38.31
2019-04-30T01:46:43.301Z,37.96
2019-04-30T01:49:10.628Z,37.95
2019-04-30T01:51:39.580Z,37.46
2019-04-30T01:54:06.240Z,38.15
2019-04-30T01:56:35.122Z,37.95
2019-04-30T01:59:03.945Z,37.99
2019-04-30T02:01:31.117Z,37.47
2019-04-30T02:03:58.574Z,37.97
2019-04-30T02:06:26.778Z,38.20
2019-04-30T02:08:53.631Z,38.30
2019-04-30T02:11:22.722Z,37.92
2019-04-30T02:13:52.025Z,37.69
2019-04-30T02:16:21.261Z,37.67
2019-04-30T02:18:51.850Z,38.00
2019-04-30T02:21:19.515Z,38.04
2019-04-30T02:23:49.330Z,38.02
2019-04-30T02:26:20.024Z,37.65
2019-04-30T02:28:50.786Z,37.65
2019-04-30T02:31:19.418Z,37.76
2019-04-30T02:33:50.310Z,38.08
2019-04-30T02:36:20.747Z,37.93
2019-04-30T02:38:49.379Z,38.56
2019-04-30T02:41:19.387Z,38.01
2019-04-30T02:43:50.601Z,38.39
2019-04-30T02:46:19.256Z,38.81
2019-04-30T02:48:50.405Z,38.90
2019-04-30T02:51:22.885Z,38.81
2019-04-30T02:53:54.528Z,38.61
2019-04-30T02:56:26.618Z,38.15
2019-04-30T02:58:55.305Z,38.83
2019-04-30T03:01:27.034Z,38.43
2019-04-30T03:03:59.573Z,38.66
2019-04-30T03:06:30.406Z,39.07
2019-04-30T03:09:01.093Z,39.20
2019-04-30T03:11:29.905Z,39.73
2019-04-30T03:13:59.073Z,39.33
2019-04-30T03:16:24.966Z,38.51
2019-04-30T03:18:52.624Z,38.78
2019-04-30T03:21:22.296Z,39.82
2019-04-30T03:23:50.915Z,39.60
2019-04-30T03:26:20.000Z,38.63
2019-04-30T03:28:46.238Z,38.89
2019-04-30T03:31:13.999Z,38.78
2019-04-30T03:33:45.546Z,38.96
2019-04-30T03:36:13.172Z,38.51
2019-04-30T03:38:42.724Z,38.45
2019-04-30T03:41:09.804Z,39.13
2019-04-30T03:43:40.704Z,39.24
2019-04-30T03:46:10.129Z,38.54
2019-04-30T03:48:39.808Z,38.73
2019-04-30T03:51:10.597Z,39.19
2019-04-30T03:53:42.587Z,40.26
2019-04-30T03:56:09.541Z,39.83
2019-04-30T03:58:39.535Z,40.03
2019-04-30T04:01:06.575Z,38.90
2019-04-30T04:03:35.245Z,39.22
2019-04-30T04:06:05.331Z,40.00
2019-04-30T04:08:32.075Z,39.44
2019-04-30T04:11:00.503Z,39.32
2019-04-30T04:13:32.630Z,39.37
2019-04-30T04:15:56.267Z,39.04
2019-04-30T04:18:25.194Z,39.31
2019-04-30T04:21:07.041Z,39.97
2019-04-30T04:23:22.506Z,39.37
2019-04-30T04:25:53.518Z,39.69
2019-04-30T04:28:23.108Z,39.03
2019-04-30T04:30:50.883Z,38.65
2019-04-30T04:33:20.097Z,38.64
2019-04-30T04:35:49.949Z,39.00
2019-04-30T04:38:20.239Z,38.61
2019-04-30T04:40:52.462Z,38.30
2019-04-30T04:43:20.236Z,38.79
2019-04-30T04:48:35.797Z,39.43
2019-04-30T04:51:02.705Z,39.31
2019-04-30T04:53:30.400Z,39.45
2019-04-30T04:55:59.741Z,39.62
2019-04-30T04:58:26.022Z,40.11
2019-04-30T05:00:52.604Z,39.13
2019-04-30T05:03:20.154Z,40.18
2019-04-30T05:05:47.115Z,40.22
2019-04-30T05:08:14.984Z,40.63
2019-04-30T05:10:41.874Z,40.58
2019-04-30T05:13:09.161Z,40.69
2019-04-30T05:15:36.298Z,40.74
2019-04-30T05:18:02.919Z,41.28
2019-04-30T05:20:29.510Z,40.82
2019-04-30T05:22:56.104Z,41.73
2019-04-30T05:25:22.740Z,40.95
2019-04-30T05:28:40.880Z,41.20
2019-04-30T05:30:19.810Z,40.94
2019-04-30T05:32:46.221Z,41.40
2019-04-30T05:35:12.804Z,41.39
2019-04-30T05:37:39.403Z,41.23
2019-04-30T05:40:06.276Z,41.75
2019-04-30T05:42:32.961Z,41.73
2019-04-30T05:44:59.812Z,41.57
2019-04-30T05:47:26.522Z,41.81
2019-04-30T05:49:53.129Z,41.97
2019-04-30T05:52:20.093Z,42.37
2019-04-30T05:54:48.564Z,42.05
2019-04-30T05:57:15.270Z,42.06
2019-04-30T05:59:41.850Z,43.08
2019-04-30T06:02:08.908Z,42.78
2019-04-30T06:04:38.662Z,42.17
2019-04-30T06:07:05.574Z,41.90
2019-04-30T06:09:34.069Z,42.32
2019-04-30T06:12:00.954Z,42.20
2019-04-30T06:14:28.661Z,41.58
2019-04-30T06:16:55.380Z,42.10
2019-04-30T06:19:23.003Z,42.15
2019-04-30T06:21:50.601Z,42.64
2019-04-30T06:24:18.794Z,43.14
2019-04-30T06:26:45.425Z,43.23
2019-04-30T06:29:12.556Z,42.94
2019-04-30T06:31:40.432Z,43.42
2019-04-30T06:34:08.582Z,44.90
2019-04-30T06:36:35.496Z,44.50
2019-04-30T06:39:03.078Z,44.39
2019-04-30T06:41:29.926Z,44.09
2019-04-30T06:43:58.637Z,45.10
2019-04-30T06:46:25.116Z,44.87
2019-04-30T06:48:51.696Z,44.82
2019-04-30T06:51:18.954Z,45.37
2019-04-30T06:53:45.678Z,45.39
2019-04-30T06:56:12.655Z,44.72
2019-04-30T06:58:41.425Z,44.19
2019-04-30T07:01:09.508Z,43.90
2019-04-30T07:03:36.202Z,43.50
2019-04-30T07:06:02.909Z,44.29
2019-04-30T07:08:39.150Z,44.56
2019-04-30T07:11:00.452Z,44.00
2019-04-30T07:13:29.715Z,44.93
2019-04-30T07:15:58.468Z,45.62
2019-04-30T07:18:24.890Z,45.77
2019-04-30T07:20:51.798Z,46.07
2019-04-30T07:23:18.921Z,45.68
2019-04-30T07:25:45.545Z,45.40
2019-04-30T07:28:12.400Z,45.07
2019-04-30T07:30:39.633Z,46.14
2019-04-30T07:33:06.528Z,45.58
2019-04-30T07:35:33.125Z,45.62
2019-04-30T07:38:04.728Z,45.83
2019-04-30T07:40:29.272Z,46.10
2019-04-30T07:42:56.247Z,47.02
2019-04-30T07:45:25.569Z,48.63
2019-04-30T07:47:51.203Z,48.58
2019-04-30T07:50:21.147Z,49.36
2019-04-30T07:52:58.819Z,50.02
2019-04-30T07:55:15.528Z,49.47
2019-04-30T07:57:42.128Z,50.91
2019-04-30T08:00:09.673Z,50.08
2019-04-30T08:02:40.881Z,50.28
2019-04-30T08:05:06.311Z,51.37
2019-04-30T08:07:33.462Z,52.17
2019-04-30T08:10:00.088Z,51.88
2019-04-30T08:12:31.862Z,51.95
2019-04-30T08:14:55.605Z,51.32
2019-04-30T08:17:22.454Z,52.56
2019-04-30T08:19:49.133Z,53.33
2019-04-30T08:22:16.204Z,52.77
2019-04-30T08:24:43.025Z,52.68
2019-04-30T08:27:10.174Z,53.38
2019-04-30T08:29:39.486Z,52.08
2019-04-30T08:32:06.603Z,51.93
2019-04-30T08:34:34.206Z,52.56
2019-04-30T08:37:12.824Z,52.26
2019-04-30T08:39:31.886Z,52.25
2019-04-30T08:41:59.972Z,52.30
2019-04-30T08:44:30.989Z,52.27
2019-04-30T08:46:59.072Z,52.43
2019-04-30T08:52:13.971Z,51.80
2019-04-30T08:54:44.946Z,53.91
2019-04-30T08:57:18.896Z,53.73
2019-04-30T08:59:49.345Z,54.24
2019-04-30T09:02:16.719Z,54.04
2019-04-30T09:04:49.393Z,54.29
2019-04-30T09:07:20.514Z,54.21
2019-04-30T09:09:49.058Z,54.57
2019-04-30T09:12:29.923Z,55.58
2019-04-30T09:14:59.318Z,55.96
2019-04-30T09:17:34.165Z,55.83
2019-04-30T09:20:03.734Z,56.82
2019-04-30T09:22:36.750Z,55.02
2019-04-30T09:25:05.164Z,56.21
2019-04-30T09:27:39.784Z,57.36
2019-04-30T09:30:10.416Z,56.68
2019-04-30T09:32:43.035Z,57.25
2019-04-30T09:35:13.447Z,56.88
2019-04-30T09:37:43.257Z,56.71
2019-04-30T09:40:17.916Z,57.48
2019-04-30T09:42:44.009Z,58.27
2019-04-30T09:45:14.521Z,57.70
2019-04-30T09:47:42.109Z,58.44
2019-04-30T09:50:12.736Z,56.66
2019-04-30T09:52:44.310Z,57.03
2019-04-30T09:55:15.401Z,58.53
2019-04-30T09:57:44.945Z,57.92
2019-04-30T10:03:03.884Z,56.50
2019-04-30T10:08:05.913Z,57.48
2019-04-30T10:10:40.019Z,56.33
2019-04-30T10:13:09.175Z,56.67
2019-04-30T10:15:40.518Z,56.67
2019-04-30T10:18:12.565Z,56.48
2019-04-30T10:23:32.524Z,57.75
2019-04-30T10:26:01.736Z,56.51
2019-04-30T10:28:33.233Z,57.30
2019-04-30T10:31:06.003Z,56.29
2019-04-30T10:33:35.934Z,56.14
2019-04-30T10:36:07.052Z,56.36
2019-04-30T10:38:36.328Z,56.43
2019-04-30T10:41:04.777Z,56.40
2019-04-30T10:43:32.188Z,56.64
2019-04-30T10:46:03.276Z,56.15
2019-04-30T10:48:32.551Z,55.33
2019-04-30T10:51:01.025Z,54.50
2019-04-30T10:53:34.200Z,54.90
2019-04-30T10:56:04.957Z,56.31
2019-04-30T10:58:33.870Z,55.26
2019-04-30T11:01:01.978Z,55.65
2019-04-30T11:03:31.069Z,56.26
2019-04-30T11:05:58.594Z,55.50
2019-04-30T11:08:25.552Z,56.40
2019-04-30T11:10:54.657Z,57.06
2019-04-30T11:13:23.846Z,56.83
2019-04-30T11:15:50.678Z,56.19
2019-04-30T11:18:19.011Z,55.75
2019-04-30T11:20:49.733Z,55.95
2019-04-30T11:23:21.520Z,55.95
2019-04-30T11:25:56.464Z,57.00
2019-04-30T11:28:28.029Z,55.45
2019-04-30T11:30:54.482Z,56.03
2019-04-30T11:33:22.005Z,55.15
2019-04-30T11:36:02.301Z,54.64
2019-04-30T11:38:22.212Z,54.98
2019-04-30T11:40:51.446Z,55.19
2019-04-30T11:43:20.814Z,55.97
2019-04-30T11:45:47.414Z,56.38
2019-04-30T11:48:19.056Z,54.87
2019-04-30T11:50:45.999Z,54.75
2019-04-30T11:53:24.569Z,55.69
2019-04-30T11:55:51.441Z,54.91
2019-04-30T11:58:21.775Z,56.37
2019-04-30T12:00:49.504Z,56.81
2019-04-30T12:03:15.914Z,56.99
2019-04-30T12:05:44.428Z,56.20
2019-04-30T12:08:15.357Z,55.83
2019-04-30T12:10:45.287Z,56.48
2019-04-30T12:13:12.634Z,56.68
2019-04-30T12:15:41.645Z,56.64
2019-04-30T12:18:11.158Z,56.22
2019-04-30T12:20:42.617Z,56.17
2019-04-30T12:23:11.887Z,57.46
2019-04-30T12:25:41.203Z,57.68
2019-04-30T12:28:07.092Z,57.35
2019-04-30T12:30:33.948Z,57.22
2019-04-30T12:33:03.990Z,56.74
2019-04-30T12:35:38.910Z,57.48
2019-04-30T12:38:08.783Z,57.79
2019-04-30T12:40:35.316Z,56.83
2019-04-30T12:43:02.273Z,58.34
2019-04-30T12:45:31.578Z,57.79
2019-04-30T12:47:58.612Z,57.63
2019-04-30T12:50:25.477Z,58.11
2019-04-30T12:52:54.278Z,57.49
2019-04-30T12:55:22.527Z,57.04
2019-04-30T12:57:58.201Z,57.87
2019-04-30T13:00:19.486Z,59.03
2019-04-30T13:02:47.571Z,58.69
2019-04-30T13:05:14.599Z,58.79
2019-04-30T13:07:42.107Z,57.72
2019-04-30T13:10:10.437Z,57.87
2019-04-30T13:12:38.500Z,56.98
2019-04-30T13:15:05.889Z,57.92
2019-04-30T13:17:33.073Z,58.16
2019-04-30T13:20:00.081Z,58.47
2019-04-30T13:22:28.897Z,56.94
2019-04-30T13:24:55.998Z,57.85
2019-04-30T13:27:22.753Z,58.48
2019-04-30T13:29:49.535Z,58.80
2019-04-30T13:32:27.902Z,57.99
2019-04-30T13:34:45.246Z,57.19
2019-04-30T13:37:13.095Z,57.47
2019-04-30T13:39:49.861Z,58.75
2019-04-30T13:42:17.613Z,58.01
2019-04-30T13:44:41.612Z,58.43
2019-04-30T13:47:10.613Z,59.49
2019-04-30T13:49:36.788Z,59.57
2019-04-30T13:52:05.031Z,58.61
2019-04-30T13:54:32.103Z,59.39
2019-04-30T13:56:59.249Z,59.15
2019-04-30T13:59:26.298Z,59.42
2019-04-30T14:01:53.966Z,59.13
2019-04-30T14:04:20.811Z,58.16
2019-04-30T14:06:48.782Z,56.96
2019-04-30T14:09:17.488Z,57.37
2019-04-30T14:11:44.751Z,58.21
2019-04-30T14:14:14.831Z,58.27
2019-04-30T14:16:43.899Z,58.05
2019-04-30T14:19:11.513Z,58.84
2019-04-30T14:21:39.170Z,57.75
2019-04-30T14:24:06.573Z,58.48
2019-04-30T14:26:33.826Z,59.39
2019-04-30T14:29:00.934Z,58.25
2019-04-30T14:31:30.120Z,58.91
2019-04-30T14:33:59.225Z,58.28
2019-04-30T14:36:26.201Z,58.57
2019-04-30T14:38:53.959Z,58.54
2019-04-30T14:41:24.366Z,58.65
2019-04-30T14:43:51.145Z,58.66
2019-04-30T14:46:20.847Z,58.64
2019-04-30T14:48:50.972Z,57.70
2019-04-30T14:51:17.327Z,57.31
2019-04-30T14:53:45.197Z,57.95
2019-04-30T14:56:12.866Z,58.40
2019-04-30T14:58:39.908Z,58.13
2019-04-30T15:01:09.265Z,58.70
2019-04-30T15:03:35.872Z,58.32
2019-04-30T15:06:03.162Z,57.47
2019-04-30T15:08:30.784Z,57.74
2019-04-30T15:10:57.612Z,58.46
2019-04-30T15:13:24.340Z,58.81
2019-04-30T15:15:55.971Z,58.28
2019-04-30T15:18:22.681Z,59.21
2019-04-30T15:20:49.866Z,60.32
2019-04-30T15:23:18.995Z,59.80
2019-04-30T15:25:45.432Z,60.32
2019-04-30T15:28:12.663Z,59.64
2019-04-30T15:30:41.862Z,59.79
2019-04-30T15:33:09.380Z,59.81
2019-04-30T15:35:36.259Z,59.85
2019-04-30T15:38:03.219Z,59.62
2019-04-30T15:40:29.843Z,60.04
2019-04-30T15:42:56.545Z,60.74
2019-04-30T15:45:23.267Z,60.92
2019-04-30T15:47:55.805Z,60.90
2019-04-30T15:50:22.574Z,61.69
2019-04-30T15:52:49.488Z,61.75
2019-04-30T15:55:16.095Z,62.06
2019-04-30T15:57:42.836Z,61.25
2019-04-30T16:00:09.741Z,60.59
2019-04-30T16:02:38.714Z,60.52
2019-04-30T16:05:05.275Z,60.32
2019-04-30T16:07:31.920Z,60.64
2019-04-30T16:09:59.405Z,60.79
2019-04-30T16:12:26.018Z,60.68
2019-04-30T16:14:52.676Z,60.60
2019-04-30T16:17:20.668Z,60.90
2019-04-30T16:19:47.441Z,61.05
2019-04-30T16:22:14.297Z,61.39
2019-04-30T16:24:40.915Z,61.52
2019-04-30T16:27:09.260Z,61.71
2019-04-30T16:29:36.092Z,61.81
2019-04-30T16:32:02.995Z,62.01
2019-04-30T16:34:30.469Z,61.97
2019-04-30T16:36:59.057Z,62.03
2019-04-30T16:39:25.681Z,61.52
2019-04-30T16:41:52.432Z,61.50
2019-04-30T16:44:19.245Z,61.75
2019-04-30T16:46:46.105Z,61.43
2019-04-30T16:49:13.546Z,62.11
2019-04-30T16:51:40.584Z,61.87
2019-04-30T16:54:08.627Z,61.29
2019-04-30T16:56:35.706Z,61.47
2019-04-30T16:59:02.576Z,61.91
2019-04-30T17:01:29.193Z,61.93
2019-04-30T17:03:55.863Z,61.68
2019-04-30T17:06:22.753Z,61.32
2019-04-30T17:08:49.537Z,60.97
2019-04-30T17:11:16.231Z,61.70
2019-04-30T17:13:42.853Z,61.75
2019-04-30T17:16:11.236Z,61.63
2019-04-30T17:18:38.737Z,61.02
2019-04-30T17:21:06.627Z,60.67
2019-04-30T17:23:33.222Z,60.45
2019-04-30T17:26:00.067Z,60.21
2019-04-30T17:28:28.487Z,60.28
2019-04-30T17:30:56.144Z,60.55
2019-04-30T17:33:22.813Z,60.12
2019-04-30T17:35:50.016Z,60.04
2019-04-30T17:38:16.691Z,60.45
2019-04-30T17:40:43.281Z,60.74
2019-04-30T17:43:10.258Z,60.78
2019-04-30T17:45:39.034Z,60.71
2019-04-30T17:48:05.811Z,60.95
2019-04-30T17:50:32.490Z,61.11
2019-04-30T17:53:00.681Z,61.99
2019-04-30T17:55:29.151Z,62.53
2019-04-30T17:57:58.545Z,63.07
2019-04-30T18:00:25.231Z,63.54
2019-04-30T18:02:52.063Z,63.50
2019-04-30T18:05:21.884Z,63.25
2019-04-30T18:07:49.893Z,62.60
2019-04-30T18:10:19.909Z,62.40
2019-04-30T18:12:46.030Z,62.44
2019-04-30T18:15:15.074Z,62.19
2019-04-30T18:17:41.670Z,61.82
2019-04-30T18:20:09.033Z,61.80
2019-04-30T18:22:36.641Z,61.75
2019-04-30T18:25:04.188Z,61.91
2019-04-30T18:27:43.029Z,62.38
2019-04-30T18:30:01.156Z,62.46
2019-04-30T18:32:29.620Z,62.37
2019-04-30T18:34:56.383Z,62.69
2019-04-30T18:37:24.292Z,62.75
2019-04-30T18:39:50.950Z,62.50
2019-04-30T18:44:56.992Z,61.33
2019-04-30T18:47:24.044Z,61.76
2019-04-30T18:49:52.598Z,61.80
2019-04-30T18:52:19.740Z,62.23
2019-04-30T18:54:49.512Z,62.98
2019-04-30T18:57:18.328Z,63.21
2019-04-30T18:59:48.165Z,63.31
2019-04-30T19:02:15.772Z,63.47
2019-04-30T19:04:46.242Z,62.85
2019-04-30T19:07:16.384Z,63.11
2019-04-30T19:09:46.017Z,62.70
2019-04-30T19:12:15.668Z,62.32
2019-04-30T19:14:49.183Z,62.15
2019-04-30T19:17:14.606Z,61.71
2019-04-30T19:19:44.818Z,62.15
2019-04-30T19:22:13.855Z,62.14
2019-04-30T19:24:53.383Z,62.43
2019-04-30T19:27:13.412Z,62.06
2019-04-30T19:29:42.587Z,62.14
2019-04-30T19:32:09.517Z,62.41
2019-04-30T19:34:38.905Z,62.63
2019-04-30T19:37:09.502Z,62.32
2019-04-30T19:39:36.235Z,62.35
2019-04-30T19:42:02.984Z,62.58
2019-04-30T19:44:32.684Z,62.68
2019-04-30T19:47:00.557Z,62.58
2019-04-30T19:49:29.874Z,62.42
2019-04-30T19:52:06.237Z,62.13
2019-04-30T19:54:28.936Z,61.91
2019-04-30T19:56:55.899Z,62.19
2019-04-30T19:59:24.583Z,62.72
2019-04-30T20:01:52.546Z,62.73
2019-04-30T20:04:32.427Z,63.24
2019-04-30T20:06:52.812Z,63.41
2019-04-30T20:09:21.729Z,63.87
2019-04-30T20:11:50.369Z,63.93
2019-04-30T20:14:18.702Z,63.96
2019-04-30T20:16:48.872Z,64.22
2019-04-30T20:19:18.165Z,63.94
2019-04-30T20:21:52.981Z,63.90
2019-04-30T20:24:16.771Z,63.63
2019-04-30T20:26:46.462Z,62.61
2019-04-30T20:29:24.655Z,61.58
2019-04-30T20:31:54.120Z,62.30
2019-04-30T20:34:21.779Z,62.55
2019-04-30T20:36:50.838Z,62.64
2019-04-30T20:39:17.826Z,62.70
2019-04-30T20:41:45.479Z,62.29
2019-04-30T20:44:20.249Z,60.89
2019-04-30T20:46:48.995Z,60.80
2019-04-30T20:49:15.693Z,61.07
2019-04-30T20:51:53.527Z,60.99
2019-04-30T20:54:13.006Z,60.97
2019-04-30T20:56:42.394Z,60.66
2019-04-30T20:59:10.850Z,60.24
2019-04-30T21:01:39.201Z,59.84
2019-04-30T21:04:08.370Z,59.63
2019-04-30T21:06:39.585Z,59.59
2019-04-30T21:09:06.334Z,59.43
2019-04-30T21:11:35.453Z,58.47
2019-04-30T21:14:02.425Z,58.93
2019-04-30T21:19:17.369Z,58.44
2019-04-30T21:21:49.726Z,58.75
2019-04-30T21:24:15.345Z,58.80
2019-04-30T21:26:48.025Z,58.83
2019-04-30T21:29:16.596Z,59.10
2019-04-30T21:31:43.682Z,61.14
2019-04-30T21:34:13.880Z,61.60
2019-04-30T21:36:42.787Z,62.71
2019-04-30T21:39:11.766Z,62.66
2019-04-30T21:41:42.246Z,61.66
2019-04-30T21:44:11.235Z,59.79
2019-04-30T21:46:39.497Z,58.73
2019-04-30T21:49:06.289Z,58.28
2019-04-30T22:40:58.883Z,56.82
2019-04-30T22:43:28.282Z,56.46
2019-04-30T22:45:55.257Z,56.50
2019-04-30T22:48:25.760Z,56.65
2019-04-30T22:50:53.742Z,56.25
2019-04-30T22:53:22.411Z,55.99
2019-04-30T22:55:49.387Z,56.02
2019-04-30T22:58:18.410Z,55.70
2019-04-30T23:00:47.907Z,56.33
2019-04-30T23:03:16.226Z,56.40
2019-04-30T23:05:46.686Z,56.75
2019-04-30T23:08:13.347Z,56.98
2019-04-30T23:10:40.234Z,56.34
2019-04-30T23:13:09.216Z,57.02
2019-04-30T23:15:35.935Z,57.33
2019-04-30T23:18:04.832Z,57.39
2019-04-30T23:20:33.162Z,57.43
2019-04-30T23:23:01.347Z,57.02
2019-04-30T23:25:29.910Z,56.45
2019-04-30T23:27:58.690Z,55.85
2019-04-30T23:30:28.049Z,56.22
2019-04-30T23:32:56.942Z,56.77
2019-04-30T23:35:23.671Z,56.88
2019-04-30T23:37:51.377Z,57.06
2019-04-30T23:40:18.083Z,57.21
2019-04-30T23:42:49.572Z,57.79
2019-04-30T23:45:16.218Z,58.08
2019-04-30T23:47:44.560Z,58.07
2019-04-30T23:50:11.173Z,57.76
2019-04-30T23:52:38.362Z,57.24
2019-04-30T23:55:11.720Z,57.61
2019-04-30T23:57:52.605Z,58.06
